עמוד ראשי
METAR-TAF:

METAR-TAF

שדות תעופה :

Deadhorse, אלסקה, ארצות הברית

קו רוחב: 70-20N, קו אורך: 150-56W, גובה: 5מטר

תצפית מזג אוויר נוכחית

הדו"ח נערך לפני 1 שעות ו 21דקות, בשעה 14:45 UTC
רוח 5קשר מכיוון צפון-מערב
טמפרטורת 1 צלסיוס
לחות 93%
לחץ 1024 hPa
ראות: 0.8קילומטר
מעונן בגובה 300רגל
ערפל,

METAR: PALP 151445Z 32005KT 1/2SM FG OVC003 01/M00 A3025

זמן: 08:06 (16:06 UTC)


TAF: חסר

תצפיות ותחזיות מזג אוויר לגבי יותר מ- 4,000 שדות תעופה ברחבי העולם. דוחות METAR ו- TAF.

התחנות הזמינות מסומנות בנקודות צהובות ואדומות על גבי המפה.

העבר את העכבר לנקודה הצבעונית על מנת לראות את שם התחנה.

לאחר מכן, לחץ כדי לראות את תוכן ואת תחזיות מזג האוויר.

כדי לשנות את המפה: לחץ על הכפתורים הירוקים עם הפלוס השחור כדי להתקרב; על הכפתור הירוק עם המקף כדי להתרחק; או בחיצים הירוקים למפות סמוכות.


METAR-TAF: